Time;durP1;ratioP1;P1;durP2;ratioP2;P2;SDS_P1;SDS_P2;PMS_P1;PMS_P2;Temp;Humidity;BMP_temperature;BMP_pressure;BME280_temperature;BME280_humidity;BME280_pressure;Samples;Min_cycle;Max_cycle;Signal;HPM_P1;HPM_P2
2022/12/15 00:39:44;;;;;;;72.28;33.60;;;-2.40;99.90;;;;;;4997206;28;20114;-66
2022/12/15 00:42:10;;;;;;;64.38;30.15;;;-2.40;99.90;;;;;;4997497;28;20109;-66
2022/12/15 00:44:38;;;;;;;74.75;32.30;;;-2.40;99.90;;;;;;4995920;28;20058;-67
2022/12/15 00:47:04;;;;;;;71.20;32.40;;;-2.40;99.90;;;;;;4992761;28;20033;-68
2022/12/15 01:22:28;;;;;;;67.80;33.30;;;-1.50;99.90;;;;;;4996536;28;20043;-67
2022/12/15 01:24:54;;;;;;;69.65;30.67;;;-1.50;99.90;;;;;;4994069;28;20102;-67
2022/12/15 01:27:19;;;;;;;64.43;32.85;;;-1.50;99.90;;;;;;4995857;28;20023;-67
2022/12/15 01:29:45;;;;;;;69.72;32.38;;;-1.50;99.90;;;;;;4996613;28;20081;-67
2022/12/15 01:32:11;;;;;;;74.10;32.38;;;-1.50;99.90;;;;;;4996468;28;20026;-67
2022/12/15 01:34:37;;;;;;;72.32;33.92;;;-1.40;99.90;;;;;;4996574;28;20030;-67
2022/12/15 01:37:02;;;;;;;74.28;34.03;;;-1.30;99.90;;;;;;4996263;28;20041;-67
2022/12/15 01:40:43;;;;;;;68.00;32.65;;;-1.30;99.90;;;;;;4995507;28;20030;-67
2022/12/15 01:42:13;;;;;;;70.88;32.33;;;-1.30;99.90;;;;;;4996061;28;20034;-67
2022/12/15 01:44:39;;;;;;;75.35;33.05;;;-1.20;99.90;;;;;;4996436;28;20055;-67
2022/12/15 01:47:11;;;;;;;71.43;33.55;;;-1.20;99.90;;;;;;4996348;28;20540;-67
2022/12/15 01:49:37;;;;;;;67.75;31.95;;;-1.00;99.90;;;;;;4995852;28;20393;-67
2022/12/15 01:52:07;;;;;;;68.82;31.40;;;-1.00;99.90;;;;;;4995576;28;20498;-67
2022/12/15 01:54:33;;;;;;;65.07;32.17;;;-1.00;99.90;;;;;;4995358;28;20030;-67
2022/12/15 01:57:04;;;;;;;58.20;30.33;;;-1.00;99.90;;;;;;4995702;28;20508;-67
2022/12/15 01:59:37;;;;;;;68.85;31.30;;;-1.00;99.90;;;;;;4994617;28;20038;-67
2022/12/15 02:02:03;;;;;;;61.97;29.90;;;-1.10;99.90;;;;;;4995022;28;20019;-67
2022/12/15 02:04:30;;;;;;;69.97;28.77;;;-1.20;99.90;;;;;;4995665;28;20026;-67
2022/12/15 02:06:55;;;;;;;68.25;30.40;;;-1.30;99.90;;;;;;4995768;28;20057;-67
2022/12/15 02:09:23;;;;;;;65.53;31.30;;;-1.30;99.90;;;;;;4995084;28;20062;-67
2022/12/15 02:11:55;;;;;;;61.70;29.48;;;-1.30;99.90;;;;;;4995609;28;20537;-67
2022/12/15 02:14:29;;;;;;;64.03;28.45;;;-1.50;99.90;;;;;;4995367;28;20042;-67
2022/12/15 02:17:10;;;;;;;63.85;27.77;;;-1.60;99.90;;;;;;4995623;28;20026;-67
2022/12/15 02:19:58;;;;;;;59.97;28.85;;;-1.70;99.90;;;;;;5038679;23;20049;-71
2022/12/15 02:22:45;;;;;;;57.17;26.27;;;-1.90;99.90;;;;;;4976905;28;20051;-71
2022/12/15 02:25:42;;;;;;;67.25;28.83;;;-2.00;99.90;;;;;;4964905;28;20113;-71
2022/12/15 02:28:36;;;;;;;65.07;29.88;;;-1.90;99.90;;;;;;4971446;28;20467;-71
2022/12/15 02:34:11;;;;;;;61.92;30.10;;;-1.80;99.90;;;;;;4938012;29;20078;-71
2022/12/15 02:36:42;;;;;;;62.00;30.63;;;-1.70;99.90;;;;;;4937678;29;20059;-71
2022/12/15 02:39:11;;;;;;;71.57;32.45;;;-1.60;99.90;;;;;;4938025;29;20036;-71
2022/12/15 02:41:40;;;;;;;65.47;31.92;;;-1.60;99.90;;;;;;4937770;29;20031;-71
2022/12/15 02:44:14;;;;;;;72.57;32.00;;;-1.60;99.90;;;;;;4946210;28;20019;-72
2022/12/15 02:47:09;;;;;;;60.47;31.45;;;-1.60;99.90;;;;;;4967292;28;20146;-72
2022/12/15 02:50:06;;;;;;;73.10;32.13;;;-1.60;99.90;;;;;;4939667;28;20459;-71
2022/12/15 02:52:41;;;;;;;68.07;32.95;;;-1.60;99.90;;;;;;4943812;29;20030;-71
2022/12/15 02:55:45;;;;;;;59.92;31.10;;;-1.60;99.90;;;;;;4956060;28;20042;-71
2022/12/15 02:58:25;;;;;;;78.20;31.92;;;-1.60;99.90;;;;;;4956588;28;20049;-71
2022/12/15 03:01:04;;;;;;;64.00;29.33;;;-1.80;99.90;;;;;;4956732;28;20387;-71
2022/12/15 03:03:33;;;;;;;69.30;31.38;;;-1.90;99.90;;;;;;4955796;28;20106;-72
2022/12/15 03:06:01;;;;;;;58.58;27.58;;;-2.00;99.90;;;;;;4957425;28;20058;-71
2022/12/15 03:08:27;;;;;;;61.65;29.73;;;-2.20;99.90;;;;;;4955540;28;20023;-71
2022/12/15 03:10:53;;;;;;;66.20;29.10;;;-2.30;99.90;;;;;;4957939;28;20086;-71
2022/12/15 03:13:19;;;;;;;70.57;30.10;;;-2.40;99.90;;;;;;4956363;28;20081;-71
2022/12/15 03:15:45;;;;;;;54.60;28.10;;;-2.60;99.90;;;;;;4964567;28;20494;-71
2022/12/15 03:18:11;;;;;;;63.92;29.38;;;-2.60;99.90;;;;;;4974956;28;20082;-71
2022/12/15 03:20:36;;;;;;;60.05;28.50;;;-2.80;99.90;;;;;;4975350;28;20027;-72
2022/12/15 03:23:02;;;;;;;74.50;30.23;;;-2.80;99.90;;;;;;4966189;28;20106;-71
2022/12/15 03:25:28;;;;;;;54.20;27.05;;;-2.90;99.90;;;;;;4956102;28;20067;-71
2022/12/15 03:27:53;;;;;;;62.60;28.05;;;-3.00;99.90;;;;;;4958201;28;20070;-71
2022/12/15 03:30:19;;;;;;;66.60;30.15;;;-3.10;99.90;;;;;;4974735;28;20113;-71
2022/12/15 03:32:45;;;;;;;60.95;28.27;;;-3.20;99.90;;;;;;4975386;28;20019;-71
2022/12/15 03:35:11;;;;;;;57.05;27.20;;;-3.30;99.90;;;;;;4957097;28;20404;-71
2022/12/15 03:37:38;;;;;;;65.65;28.08;;;-3.30;99.90;;;;;;4955654;28;20026;-71
2022/12/15 03:40:04;;;;;;;60.10;27.42;;;-3.40;99.90;;;;;;4969240;28;20030;-71
2022/12/15 03:42:48;;;;;;;70.13;29.33;;;-3.40;99.90;;;;;;4975206;28;20023;-71
2022/12/15 03:45:19;;;;;;;62.90;27.65;;;-3.50;99.90;;;;;;4967717;28;20475;-71
2022/12/15 03:47:46;;;;;;;59.08;28.95;;;-3.70;99.90;;;;;;4955698;28;20055;-70
2022/12/15 03:50:15;;;;;;;59.70;27.38;;;-3.80;99.90;;;;;;4955595;28;20026;-71
2022/12/15 03:52:40;;;;;;;62.08;25.23;;;-3.80;99.90;;;;;;4956674;28;20028;-70
2022/12/15 03:55:06;;;;;;;63.42;27.17;;;-3.90;99.90;;;;;;4956289;29;20034;-71
2022/12/15 03:57:33;;;;;;;65.60;27.42;;;-3.90;99.90;;;;;;4955994;28;20027;-70
2022/12/15 03:59:59;;;;;;;49.47;23.40;;;-3.90;99.90;;;;;;4955123;28;20584;-71
2022/12/15 04:02:24;;;;;;;55.50;25.35;;;-4.00;99.90;;;;;;4954301;29;20403;-71
2022/12/15 04:04:50;;;;;;;60.60;23.02;;;-4.10;99.90;;;;;;4956009;28;20023;-71
2022/12/15 04:07:15;;;;;;;57.75;27.15;;;-4.20;99.90;;;;;;4955588;28;20027;-71
2022/12/15 04:09:41;;;;;;;47.95;21.45;;;-4.40;99.90;;;;;;4955087;28;20039;-71
2022/12/15 04:12:09;;;;;;;45.30;21.10;;;-4.50;99.90;;;;;;4956572;28;20398;-71
2022/12/15 04:14:34;;;;;;;46.10;22.92;;;-4.60;99.90;;;;;;4955847;28;20384;-70
2022/12/15 04:17:00;;;;;;;48.47;24.80;;;-4.70;99.90;;;;;;4955400;28;20081;-71
2022/12/15 04:22:09;;;;;;;48.75;21.92;;;-4.80;99.90;;;;;;4955926;29;20026;-70
2022/12/15 05:33:03;;;;;;;212.20;23.35;;;-6.10;99.90;;;;;;4958370;29;20115;-71
2022/12/15 05:35:28;;;;;;;166.90;25.48;;;-6.40;99.90;;;;;;4958527;28;20090;-70
2022/12/15 05:37:54;;;;;;;38.40;19.73;;;-6.50;99.90;;;;;;4957585;28;20498;-71
2022/12/15 05:40:19;;;;;;;47.17;20.45;;;-6.70;99.90;;;;;;4958002;28;20035;-71
2022/12/15 05:42:45;;;;;;;33.30;17.92;;;-6.70;99.90;;;;;;4958138;28;20023;-70
2022/12/15 05:45:10;;;;;;;28.23;14.93;;;-6.80;99.90;;;;;;4958083;28;20090;-70
2022/12/15 05:47:36;;;;;;;26.42;14.48;;;-6.80;99.90;;;;;;4957576;28;20023;-70
2022/12/15 05:50:01;;;;;;;28.73;14.85;;;-6.70;99.90;;;;;;4956850;28;20426;-70
2022/12/15 05:52:27;;;;;;;107.97;21.63;;;-6.80;99.90;;;;;;4957919;28;20043;-70
2022/12/15 05:54:52;;;;;;;23.55;12.18;;;-7.10;99.90;;;;;;4957857;28;20375;-70
2022/12/15 05:57:18;;;;;;;26.30;14.30;;;-7.10;99.90;;;;;;4957506;28;20172;-71
2022/12/15 05:59:43;;;;;;;25.80;13.98;;;-7.10;99.90;;;;;;4957611;28;20034;-71
2022/12/15 06:02:09;;;;;;;187.48;20.33;;;-7.00;99.90;;;;;;4957696;28;20043;-70
2022/12/15 06:04:34;;;;;;;22.55;11.85;;;-6.90;99.90;;;;;;4957803;28;20023;-70
2022/12/15 06:07:00;;;;;;;21.10;11.23;;;-6.90;99.90;;;;;;4957124;28;20031;-71
2022/12/15 06:09:25;;;;;;;20.00;10.75;;;-6.70;99.90;;;;;;4957507;28;20054;-71
2022/12/15 06:11:51;;;;;;;17.25;9.50;;;-6.50;99.90;;;;;;4957155;28;20039;-70
2022/12/15 06:14:17;;;;;;;24.15;11.20;;;-6.40;99.90;;;;;;4957714;29;20023;-70
2022/12/15 06:16:42;;;;;;;23.98;12.30;;;-6.30;99.90;;;;;;4957437;28;20497;-71
2022/12/15 06:19:08;;;;;;;25.55;13.20;;;-6.20;99.90;;;;;;4957227;28;20079;-71
2022/12/15 06:21:34;;;;;;;31.40;15.00;;;-6.10;99.90;;;;;;4956894;28;20498;-71
2022/12/15 06:24:01;;;;;;;25.17;13.18;;;-6.10;99.90;;;;;;4957350;28;20114;-70
2022/12/15 06:26:35;;;;;;;23.70;11.98;;;-6.10;99.90;;;;;;4957299;28;20023;-71
2022/12/15 06:29:02;;;;;;;19.60;11.73;;;-6.10;99.90;;;;;;4957418;28;20034;-71
2022/12/15 06:31:30;;;;;;;20.48;11.98;;;-6.10;99.90;;;;;;4956832;28;20042;-71
2022/12/15 06:33:56;;;;;;;20.30;11.80;;;-6.20;99.90;;;;;;4957446;28;20482;-71
2022/12/15 06:36:22;;;;;;;30.05;14.18;;;-6.20;99.90;;;;;;4957080;28;20035;-70
2022/12/15 06:38:49;;;;;;;66.93;15.90;;;-6.20;99.90;;;;;;4957239;28;20077;-70
2022/12/15 06:41:17;;;;;;;25.33;13.20;;;-6.30;99.90;;;;;;4955722;29;20066;-70
2022/12/15 06:43:48;;;;;;;32.75;16.48;;;-6.20;99.90;;;;;;4956477;28;20055;-71
2022/12/15 06:46:13;;;;;;;46.17;15.60;;;-6.10;99.90;;;;;;4957242;28;20506;-71
2022/12/15 06:48:41;;;;;;;32.72;16.80;;;-6.00;99.90;;;;;;4956849;28;20027;-71
2022/12/15 06:51:07;;;;;;;50.38;19.13;;;-5.90;99.90;;;;;;4955416;28;20027;-71
2022/12/15 06:53:36;;;;;;;39.05;18.15;;;-5.80;99.90;;;;;;4956250;28;20034;-71
2022/12/15 06:56:05;;;;;;;49.25;19.55;;;-5.70;99.90;;;;;;4956608;28;20031;-70
2022/12/15 06:58:31;;;;;;;34.25;16.73;;;-5.50;99.90;;;;;;4958068;28;20039;-70
2022/12/15 07:00:57;;;;;;;32.30;17.67;;;-5.30;99.90;;;;;;4955221;28;20032;-71
2022/12/15 07:03:22;;;;;;;31.80;17.77;;;-5.30;99.90;;;;;;4956305;28;20058;-71
2022/12/15 07:05:59;;;;;;;36.33;18.25;;;-5.10;99.90;;;;;;4955129;28;20368;-71
2022/12/15 07:08:24;;;;;;;41.50;19.13;;;-5.00;99.90;;;;;;4946712;28;20047;-71
2022/12/15 07:10:49;;;;;;;47.65;21.60;;;-4.90;99.90;;;;;;4956308;29;20550;-71
2022/12/15 07:13:15;;;;;;;37.63;18.90;;;-4.80;99.90;;;;;;4956350;28;20110;-71
2022/12/15 07:15:41;;;;;;;52.22;24.08;;;-4.70;99.90;;;;;;4956324;28;20023;-71
2022/12/15 07:18:09;;;;;;;41.60;20.73;;;-4.60;99.90;;;;;;4956018;28;20058;-72
2022/12/15 07:20:35;;;;;;;40.13;21.63;;;-4.50;99.90;;;;;;4954866;29;20503;-71
2022/12/15 07:23:06;;;;;;;47.08;23.58;;;-4.50;99.90;;;;;;4955579;28;20027;-71
2022/12/15 07:25:33;;;;;;;48.33;22.58;;;-4.40;99.90;;;;;;4956593;28;20066;-71
2022/12/15 07:27:59;;;;;;;43.30;21.90;;;-4.30;99.90;;;;;;4956217;28;20027;-71
2022/12/15 07:30:24;;;;;;;45.42;23.27;;;-4.20;99.90;;;;;;4956026;28;20032;-71
2022/12/15 07:32:50;;;;;;;43.53;21.10;;;-4.30;99.90;;;;;;4954522;29;20027;-71
2022/12/15 07:35:16;;;;;;;47.63;23.20;;;-4.20;99.90;;;;;;4956140;29;20475;-70
2022/12/15 07:37:42;;;;;;;40.65;22.33;;;-4.20;99.90;;;;;;4956084;29;20032;-71
2022/12/15 07:40:08;;;;;;;38.63;20.17;;;-4.20;99.90;;;;;;4955910;28;20031;-71
2022/12/15 07:42:33;;;;;;;43.95;23.23;;;-4.20;99.90;;;;;;4956045;28;20419;-71
2022/12/15 07:44:59;;;;;;;52.53;24.90;;;-4.10;99.90;;;;;;4955527;29;20023;-72
2022/12/15 07:47:24;;;;;;;52.78;23.35;;;-4.00;99.90;;;;;;4955723;29;20109;-71
2022/12/15 07:49:50;;;;;;;55.22;25.50;;;-3.90;99.90;;;;;;4955930;28;20027;-71
2022/12/15 07:52:15;;;;;;;45.28;26.38;;;-3.90;99.90;;;;;;4956059;28;20023;-71
2022/12/15 07:54:41;;;;;;;57.33;24.55;;;-3.90;99.90;;;;;;4955981;28;20114;-71
2022/12/15 07:57:07;;;;;;;62.78;26.98;;;-3.80;99.90;;;;;;4955998;28;20027;-71
2022/12/15 07:59:33;;;;;;;54.63;24.83;;;-3.80;99.90;;;;;;4955199;28;20071;-71
2022/12/15 08:02:00;;;;;;;53.20;25.25;;;-3.80;99.90;;;;;;4955812;28;20031;-71
2022/12/15 08:04:26;;;;;;;49.72;23.70;;;-3.70;99.90;;;;;;4955589;28;20034;-71
2022/12/15 08:06:58;;;;;;;49.92;25.08;;;-3.70;99.90;;;;;;4955476;28;20032;-71
2022/12/15 08:09:24;;;;;;;51.58;24.60;;;-3.60;99.90;;;;;;4955242;28;20029;-71
2022/12/15 08:11:50;;;;;;;53.10;25.98;;;-3.60;99.90;;;;;;4955793;28;20446;-71
2022/12/15 08:14:16;;;;;;;56.85;24.83;;;-3.50;99.90;;;;;;4955925;28;20074;-70
2022/12/15 08:16:42;;;;;;;52.33;25.00;;;-3.50;99.90;;;;;;4955091;28;20039;-71
2022/12/15 08:19:11;;;;;;;54.13;26.40;;;-3.50;99.90;;;;;;4979356;23;20039;-76
2022/12/15 08:21:39;;;;;;;48.88;26.23;;;-3.50;99.90;;;;;;4956231;29;20035;-75
2022/12/15 08:24:06;;;;;;;51.70;26.70;;;-3.50;99.90;;;;;;4954509;29;20031;-75
2022/12/15 08:26:33;;;;;;;53.25;27.83;;;-3.40;99.90;;;;;;4936400;29;20083;-76
2022/12/15 08:29:05;;;;;;;63.20;26.65;;;-3.50;99.90;;;;;;4936434;29;20024;-76
2022/12/15 08:31:32;;;;;;;60.33;26.40;;;-3.40;99.90;;;;;;4951323;28;20110;-74
2022/12/15 08:33:59;;;;;;;55.70;27.23;;;-3.40;99.90;;;;;;4956004;28;20027;-75
2022/12/15 08:36:24;;;;;;;59.60;28.02;;;-3.30;99.90;;;;;;4966029;28;20082;-76
2022/12/15 08:38:50;;;;;;;53.80;27.00;;;-3.30;99.90;;;;;;4978635;28;20027;-76
2022/12/15 08:41:18;;;;;;;53.97;26.23;;;-3.20;99.90;;;;;;4977253;28;20030;-75
2022/12/15 08:43:46;;;;;;;66.57;28.98;;;-3.10;99.90;;;;;;4958826;28;20391;-76
2022/12/15 08:46:12;;;;;;;56.58;28.58;;;-3.00;99.90;;;;;;4958216;28;20477;-76
2022/12/15 08:48:38;;;;;;;68.57;31.00;;;-2.90;99.90;;;;;;4956641;29;20023;-76
2022/12/15 08:51:05;;;;;;;87.65;31.60;;;-2.80;99.90;;;;;;4959345;28;20494;-75
2022/12/15 08:53:30;;;;;;;78.10;32.75;;;-2.70;99.90;;;;;;4960585;28;20087;-76
2022/12/15 08:56:04;;;;;;;64.75;30.88;;;-2.60;99.90;;;;;;4972571;28;20054;-76
2022/12/15 08:58:30;;;;;;;72.32;33.17;;;-2.50;99.90;;;;;;4978849;28;20034;-75
2022/12/15 09:01:03;;;;;;;77.80;33.85;;;-2.40;99.90;;;;;;4978131;28;20368;-76
2022/12/15 09:03:29;;;;;;;74.88;32.88;;;-2.20;99.90;;;;;;4977763;28;20027;-76
2022/12/15 09:05:56;;;;;;;74.82;35.30;;;-2.00;99.90;;;;;;4965934;28;20031;-76
2022/12/15 09:08:23;;;;;;;79.70;34.60;;;-1.90;99.90;;;;;;4959171;28;20109;-76
2022/12/15 09:10:48;;;;;;;78.53;35.40;;;-1.70;99.90;;;;;;4958483;28;20031;-76
2022/12/15 09:13:14;;;;;;;90.72;37.80;;;-1.70;99.90;;;;;;4959053;28;20026;-76
2022/12/15 09:15:42;;;;;;;91.50;36.53;;;-1.60;99.90;;;;;;4958782;29;20098;-76
2022/12/15 09:18:07;;;;;;;85.93;36.30;;;-1.60;99.90;;;;;;4958946;28;20024;-76
2022/12/15 09:20:33;;;;;;;100.93;37.25;;;-1.50;99.90;;;;;;4958557;28;20086;-76
2022/12/15 09:22:59;;;;;;;87.10;36.03;;;-1.40;99.90;;;;;;4958051;28;20110;-76
2022/12/15 09:25:24;;;;;;;85.40;36.13;;;-1.20;99.90;;;;;;4957185;28;20034;-76
2022/12/15 09:27:50;;;;;;;93.90;36.55;;;-1.20;99.90;;;;;;4958477;28;20034;-75
2022/12/15 09:30:15;;;;;;;86.35;38.00;;;-1.10;99.90;;;;;;4958451;28;20039;-76
2022/12/15 09:32:41;;;;;;;75.60;34.13;;;-1.10;99.90;;;;;;4960359;28;20398;-76
2022/12/15 09:35:06;;;;;;;87.32;36.85;;;-1.00;99.90;;;;;;4957828;29;20035;-75
2022/12/15 09:37:32;;;;;;;74.20;34.55;;;-1.00;99.90;;;;;;4959140;28;20031;-75
2022/12/15 09:39:57;;;;;;;86.05;36.10;;;-0.90;99.90;;;;;;4977839;28;20038;-75
2022/12/15 09:42:29;;;;;;;80.35;36.70;;;-0.90;99.90;;;;;;4977670;28;20035;-75
2022/12/15 09:45:17;;;;;;;74.47;34.22;;;-0.80;99.90;;;;;;4976552;28;20015;-74
2022/12/15 09:48:03;;;;;;;79.80;35.33;;;-0.70;99.90;;;;;;4991934;28;20114;-75
2022/12/15 09:50:36;;;;;;;77.63;35.80;;;-0.60;99.90;;;;;;4960145;28;20062;-75
2022/12/15 09:53:04;;;;;;;82.85;33.53;;;-0.60;99.90;;;;;;4956914;29;20483;-75
2022/12/15 09:55:34;;;;;;;78.43;35.03;;;-0.60;99.90;;;;;;4967727;28;20450;-75
2022/12/15 09:58:10;;;;;;;86.88;37.90;;;-0.50;99.90;;;;;;4975524;28;20026;-75
2022/12/15 10:00:47;;;;;;;85.28;37.45;;;-0.50;99.90;;;;;;4975727;28;20041;-75
2022/12/15 10:03:34;;;;;;;100.95;38.53;;;-0.50;99.90;;;;;;4975991;28;20042;-75
2022/12/15 10:05:59;;;;;;;91.60;36.58;;;-0.40;99.90;;;;;;4975933;28;20031;-75
2022/12/15 10:08:29;;;;;;;91.10;38.60;;;-0.40;99.90;;;;;;4976720;28;20015;-74
2022/12/15 10:11:01;;;;;;;95.28;38.67;;;-0.40;99.90;;;;;;4974873;28;20038;-75
2022/12/15 10:13:52;;;;;;;107.95;39.53;;;-0.40;99.90;;;;;;4974537;28;20093;-75
2022/12/15 10:16:17;;;;;;;102.70;38.95;;;-0.30;99.90;;;;;;4977204;28;20102;-74
2022/12/15 10:19:01;;;;;;;119.72;39.85;;;-0.20;99.90;;;;;;4976456;28;20521;-75
2022/12/15 10:21:27;;;;;;;;;;;-0.10;99.90;;;;;;4976000;28;20058;-75
2022/12/15 10:23:57;;;;;;;111.72;39.85;;;0.10;99.90;;;;;;4976772;28;20373;-75
2022/12/15 10:26:30;;;;;;;120.55;41.33;;;0.00;99.90;;;;;;4967005;28;20437;-75
2022/12/15 10:29:38;;;;;;;112.50;39.90;;;0.10;99.90;;;;;;4956434;29;20027;-75
2022/12/15 10:32:19;;;;;;;122.22;39.28;;;0.30;99.90;;;;;;4918959;29;20043;-75
2022/12/15 10:34:45;;;;;;;133.32;41.90;;;0.30;99.90;;;;;;4938687;29;20451;-75
2022/12/15 10:37:18;;;;;;;146.13;43.60;;;0.40;99.90;;;;;;4956842;28;20039;-75
2022/12/15 10:39:47;;;;;;;117.72;37.35;;;0.50;99.90;;;;;;4976475;28;20121;-75
2022/12/15 10:42:21;;;;;;;110.38;39.65;;;0.50;99.90;;;;;;4968923;28;20027;-75
2022/12/15 10:45:28;;;;;;;123.57;41.45;;;0.60;99.90;;;;;;4957433;28;20050;-75
2022/12/15 10:47:58;;;;;;;123.63;40.88;;;0.50;99.90;;;;;;4955715;29;20106;-75
2022/12/15 10:50:24;;;;;;;124.55;40.60;;;0.60;99.90;;;;;;4956663;28;20027;-75
2022/12/15 10:52:50;;;;;;;118.45;41.38;;;0.70;99.90;;;;;;4972108;28;20046;-75
2022/12/15 10:55:37;;;;;;;112.68;38.60;;;0.70;99.90;;;;;;4974915;28;20023;-75
2022/12/15 10:58:15;;;;;;;104.13;35.58;;;0.80;99.90;;;;;;4956948;28;20027;-75
2022/12/15 11:00:40;;;;;;;123.35;40.00;;;0.80;99.90;;;;;;4956936;28;20033;-75
2022/12/15 11:03:24;;;;;;;91.78;35.75;;;0.80;99.90;;;;;;4955264;29;20114;-75
2022/12/15 11:05:55;;;;;;;99.47;33.67;;;0.80;99.90;;;;;;4956955;28;20030;-75
2022/12/15 11:08:23;;;;;;;102.97;37.28;;;0.90;99.90;;;;;;4956643;28;20023;-75
2022/12/15 11:14:04;;;;;;;97.28;35.83;;;0.70;99.90;;;;;;4960934;28;20034;-75
2022/12/15 11:16:30;;;;;;;85.50;32.75;;;0.60;99.90;;;;;;4964862;28;20035;-75
2022/12/15 11:19:12;;;;;;;86.47;33.97;;;0.60;99.90;;;;;;4958667;28;20051;-75
2022/12/15 11:22:01;;;;;;;91.28;36.20;;;0.60;99.90;;;;;;4956648;28;20027;-76
2022/12/15 11:24:33;;;;;;;84.18;32.67;;;0.80;99.90;;;;;;4973477;28;20107;-75
2022/12/15 11:27:27;;;;;;;81.53;32.22;;;0.80;99.90;;;;;;4975731;28;20090;-76
2022/12/15 11:30:09;;;;;;;78.27;30.40;;;0.80;99.90;;;;;;4975174;28;20031;-76
2022/12/15 11:32:37;;;;;;;74.25;30.42;;;0.80;99.90;;;;;;4975683;28;20023;-76
2022/12/15 11:35:10;;;;;;;80.63;31.67;;;0.80;99.90;;;;;;4975649;28;20022;-76
2022/12/15 11:37:54;;;;;;;78.73;31.83;;;0.60;99.90;;;;;;4975833;28;20027;-76
2022/12/15 11:40:20;;;;;;;75.78;29.65;;;0.70;99.90;;;;;;4975403;28;20034;-76
2022/12/15 11:42:51;;;;;;;80.80;30.73;;;0.70;99.90;;;;;;4975423;28;20102;-75
2022/12/15 11:45:30;;;;;;;83.68;30.83;;;0.70;99.90;;;;;;4975009;28;20113;-75
2022/12/15 11:48:13;;;;;;;76.72;29.55;;;0.80;99.90;;;;;;4975478;28;20446;-75
2022/12/15 11:50:58;;;;;;;77.80;30.67;;;0.80;99.90;;;;;;4975553;28;20517;-75
2022/12/15 11:53:46;;;;;;;70.18;30.05;;;0.80;99.90;;;;;;4975251;28;20033;-75
2022/12/15 11:56:27;;;;;;;66.25;29.10;;;0.80;99.90;;;;;;4975606;28;20029;-76
2022/12/15 11:59:18;;;;;;;69.88;27.55;;;0.80;99.90;;;;;;4973990;28;20034;-75
2022/12/15 12:01:45;;;;;;;63.55;28.77;;;0.90;99.90;;;;;;4974040;28;20094;-75
2022/12/15 12:04:24;;;;;;;80.82;30.98;;;0.90;99.90;;;;;;4974026;28;20026;-75
2022/12/15 12:07:14;;;;;;;73.30;30.98;;;0.90;99.90;;;;;;4974861;28;20027;-75
2022/12/15 12:10:16;;;;;;;73.35;29.50;;;1.00;99.90;;;;;;4981145;28;20034;-75
2022/12/15 12:12:50;;;;;;;80.88;30.73;;;0.90;99.90;;;;;;4982137;28;20027;-75
2022/12/15 12:15:40;;;;;;;73.45;30.63;;;1.00;99.90;;;;;;4981731;28;20042;-75
2022/12/15 12:18:21;;;;;;;88.45;34.17;;;1.00;99.90;;;;;;4981949;28;20207;-75
2022/12/15 12:20:56;;;;;;;70.63;30.35;;;1.00;99.90;;;;;;4979729;28;20081;-75
2022/12/15 12:23:33;;;;;;;86.53;33.97;;;1.00;99.90;;;;;;4980440;28;20033;-75
2022/12/15 12:26:15;;;;;;;77.07;31.90;;;0.90;99.90;;;;;;4981765;28;20031;-75
2022/12/15 12:29:05;;;;;;;87.78;34.08;;;0.90;99.90;;;;;;4981614;28;20082;-75
2022/12/15 12:31:40;;;;;;;83.28;33.35;;;0.90;99.90;;;;;;4981456;28;20026;-75
2022/12/15 12:34:14;;;;;;;86.97;33.88;;;1.00;99.90;;;;;;4980838;28;20035;-75
2022/12/15 12:36:42;;;;;;;82.03;33.90;;;1.10;99.90;;;;;;4981755;28;20054;-75
2022/12/15 12:39:17;;;;;;;91.03;33.92;;;1.10;99.90;;;;;;4981225;28;20109;-75
2022/12/15 12:42:02;;;;;;;77.20;35.17;;;1.10;99.90;;;;;;4981820;28;20031;-75
2022/12/15 12:44:31;;;;;;;73.28;33.45;;;1.30;99.90;;;;;;4980262;28;20030;-75
2022/12/15 12:46:59;;;;;;;78.15;33.72;;;1.30;99.90;;;;;;4979714;28;20439;-75
2022/12/15 12:49:31;;;;;;;70.22;33.47;;;1.30;99.90;;;;;;4981231;28;20435;-75
2022/12/15 12:52:01;;;;;;;67.85;32.00;;;1.20;99.90;;;;;;4981319;28;20018;-75
2022/12/15 12:54:35;;;;;;;78.80;34.00;;;1.20;99.90;;;;;;4981314;28;20502;-75
2022/12/15 12:57:38;;;;;;;74.90;34.90;;;1.30;99.90;;;;;;4980869;28;20562;-75
2022/12/15 13:00:06;;;;;;;69.50;33.70;;;1.30;99.90;;;;;;4979766;28;20022;-75
2022/12/15 13:02:36;;;;;;;65.88;32.75;;;1.10;99.90;;;;;;4981165;28;20066;-75
2022/12/15 13:05:21;;;;;;;74.78;33.75;;;1.10;99.90;;;;;;4981970;28;20097;-75
2022/12/15 13:08:05;;;;;;;74.50;32.80;;;1.00;99.90;;;;;;4979882;28;20026;-75
2022/12/15 13:10:31;;;;;;;;;;;0.90;99.90;;;;;;4980917;28;20035;-75
2022/12/15 13:13:18;;;;;;;64.68;30.63;;;0.80;99.90;;;;;;4981208;28;19906;-74
2022/12/15 13:15:46;;;;;;;74.97;31.25;;;0.70;99.90;;;;;;4973635;28;20043;-74
2022/12/15 13:18:11;;;;;;;71.80;32.50;;;0.70;99.90;;;;;;4980517;28;20584;-74
2022/12/15 13:20:38;;;;;;;70.57;31.98;;;0.70;99.90;;;;;;4978654;28;20126;-75
2022/12/15 13:23:15;;;;;;;69.50;31.75;;;0.70;99.90;;;;;;4978010;28;20037;-74
2022/12/15 13:25:43;;;;;;;69.00;31.55;;;0.70;99.90;;;;;;4977988;28;20078;-74
2022/12/15 13:28:19;;;;;;;72.18;30.55;;;0.70;99.90;;;;;;4977824;28;20037;-75
2022/12/15 13:31:19;;;;;;;66.68;31.17;;;0.60;99.90;;;;;;4976575;28;20086;-75
2022/12/15 13:33:54;;;;;;;66.78;31.83;;;0.60;99.90;;;;;;4978103;28;20105;-75
2022/12/15 13:36:38;;;;;;;72.50;33.42;;;0.60;99.90;;;;;;4977617;28;20030;-74
2022/12/15 13:39:15;;;;;;;81.13;33.28;;;0.60;99.90;;;;;;4977662;28;20478;-74
2022/12/15 13:41:47;;;;;;;61.83;32.35;;;0.60;99.90;;;;;;4976221;28;20126;-74
2022/12/15 13:44:31;;;;;;;75.35;33.83;;;0.60;99.90;;;;;;4977285;28;20085;-74
2022/12/15 13:47:14;;;;;;;64.57;33.05;;;0.60;99.90;;;;;;4977547;28;20030;-74
2022/12/15 13:50:22;;;;;;;65.13;31.50;;;0.60;99.90;;;;;;4977662;28;20031;-74
2022/12/15 13:52:52;;;;;;;69.15;31.48;;;0.60;99.90;;;;;;4937048;29;20031;-75
2022/12/15 13:55:23;;;;;;;67.80;32.10;;;0.50;99.90;;;;;;4970476;28;20035;-74
2022/12/15 13:58:14;;;;;;;61.13;31.33;;;0.50;99.90;;;;;;4976859;28;20026;-74
2022/12/15 14:00:51;;;;;;;66.88;31.98;;;0.50;99.90;;;;;;4977105;28;20545;-74
2022/12/15 14:03:17;;;;;;;66.63;31.75;;;0.50;99.90;;;;;;4977514;28;20474;-74
2022/12/15 14:05:57;;;;;;;80.90;33.15;;;0.50;99.90;;;;;;4977369;28;20030;-75
2022/12/15 14:08:25;;;;;;;63.25;32.08;;;0.40;99.90;;;;;;4976804;28;20022;-75
2022/12/15 14:10:56;;;;;;;75.43;34.55;;;0.40;99.90;;;;;;4963797;28;20082;-77
2022/12/15 14:13:28;;;;;;;67.70;32.67;;;0.40;99.90;;;;;;4964403;28;20031;-77
2022/12/15 14:16:03;;;;;;;77.03;32.67;;;0.40;99.90;;;;;;4955627;28;20031;-74
2022/12/15 14:18:32;;;;;;;67.03;32.88;;;0.40;99.90;;;;;;4956931;28;20450;-75
2022/12/15 14:20:58;;;;;;;69.32;34.30;;;0.40;99.90;;;;;;4991034;23;20047;-67
2022/12/15 14:23:39;;;;;;;65.05;31.63;;;0.40;99.90;;;;;;4994445;28;20478;-68
2022/12/15 14:26:07;;;;;;;69.13;32.95;;;0.40;99.90;;;;;;4990959;28;20076;-69
2022/12/15 14:28:35;;;;;;;69.93;32.85;;;0.40;99.90;;;;;;4993299;28;20524;-70
2022/12/15 14:31:09;;;;;;;73.78;32.72;;;0.30;99.90;;;;;;4992566;28;20062;-70
2022/12/15 14:33:38;;;;;;;75.30;32.85;;;0.30;99.90;;;;;;4982276;28;20026;-69
2022/12/15 14:36:08;;;;;;;65.63;32.30;;;0.30;99.90;;;;;;4994134;28;20030;-70
2022/12/15 14:38:42;;;;;;;74.60;34.13;;;0.20;99.90;;;;;;4987208;28;20428;-69
2022/12/15 14:41:20;;;;;;;61.00;31.23;;;0.20;99.90;;;;;;4993254;28;20519;-69
2022/12/15 14:43:50;;;;;;;64.40;33.17;;;0.20;99.90;;;;;;4993154;28;20034;-70
2022/12/15 14:46:23;;;;;;;71.25;33.85;;;0.20;99.90;;;;;;4984138;28;20072;-69
2022/12/15 14:48:55;;;;;;;66.10;33.45;;;0.20;99.90;;;;;;4993835;28;20033;-69
2022/12/15 14:51:22;;;;;;;63.58;32.38;;;0.20;99.90;;;;;;4993275;28;20065;-69
2022/12/15 14:53:52;;;;;;;73.05;34.38;;;0.20;99.90;;;;;;4993183;28;20038;-68
2022/12/15 14:56:21;;;;;;;64.63;32.45;;;0.10;99.90;;;;;;4993144;28;20088;-69
2022/12/15 14:59:17;;;;;;;57.95;29.52;;;0.20;99.90;;;;;;4993969;28;20038;-69
2022/12/15 15:02:08;;;;;;;70.00;32.78;;;0.20;99.90;;;;;;4993654;28;20032;-67
2022/12/15 15:04:34;;;;;;;70.35;33.42;;;0.10;99.90;;;;;;4989318;28;20041;-68
2022/12/15 15:07:03;;;;;;;69.55;32.78;;;0.10;99.90;;;;;;4993928;28;20026;-67
2022/12/15 15:09:40;;;;;;;65.55;30.67;;;0.10;99.90;;;;;;4994228;28;20091;-67
2022/12/15 15:12:07;;;;;;;65.35;32.67;;;0.10;99.90;;;;;;4994235;28;20085;-67
2022/12/15 15:14:39;;;;;;;65.13;33.10;;;0.10;99.90;;;;;;4993665;28;20516;-67
2022/12/15 15:17:15;;;;;;;66.05;33.05;;;0.10;99.90;;;;;;4994322;28;20034;-67
2022/12/15 15:19:55;;;;;;;56.38;31.95;;;0.10;99.90;;;;;;4994508;28;20109;-67
2022/12/15 15:22:27;;;;;;;74.43;35.00;;;0.10;99.90;;;;;;4981674;28;20453;-67